createdAt,value
2022-08-03T00:00:40.280Z,5.50
2022-08-03T00:03:08.712Z,6.00
2022-08-03T00:05:38.209Z,7.00
2022-08-03T00:08:06.746Z,5.75
2022-08-03T00:10:36.650Z,5.53
2022-08-03T00:13:05.186Z,6.05
2022-08-03T00:15:34.064Z,5.80
2022-08-03T00:18:02.338Z,5.30
2022-08-03T00:20:30.629Z,5.82
2022-08-03T00:22:59.605Z,6.25
2022-08-03T00:25:28.291Z,5.85
2022-08-03T00:27:58.714Z,5.22
2022-08-03T00:30:30.897Z,5.97
2022-08-03T00:32:59.891Z,5.20
2022-08-03T00:35:36.883Z,5.28
2022-08-03T00:38:17.351Z,5.68
2022-08-03T00:40:46.121Z,6.47
2022-08-03T00:43:15.795Z,5.43
2022-08-03T00:45:45.024Z,6.35
2022-08-03T00:48:19.499Z,5.88
2022-08-03T00:50:58.887Z,5.78
2022-08-03T00:53:28.787Z,5.47
2022-08-03T00:55:57.457Z,5.80
2022-08-03T00:58:27.268Z,5.78
2022-08-03T01:00:56.092Z,5.35
2022-08-03T01:03:24.535Z,5.32
2022-08-03T01:06:05.877Z,5.85
2022-08-03T01:08:45.267Z,5.57
2022-08-03T01:11:20.135Z,6.28
2022-08-03T01:14:18.285Z,5.70
2022-08-03T01:16:55.996Z,6.20
2022-08-03T01:19:46.394Z,5.88
2022-08-03T01:22:34.432Z,5.57
2022-08-03T01:25:10.764Z,5.90
2022-08-03T01:27:53.083Z,5.35
2022-08-03T01:30:25.214Z,6.15
2022-08-03T01:33:02.095Z,6.00
2022-08-03T01:35:38.611Z,6.07
2022-08-03T01:38:11.805Z,5.55
2022-08-03T01:40:42.736Z,6.13
2022-08-03T01:43:14.776Z,5.50
2022-08-03T01:46:05.913Z,6.00
2022-08-03T01:48:35.160Z,5.57
2022-08-03T01:51:04.788Z,5.55
2022-08-03T01:53:36.011Z,5.97
2022-08-03T01:56:07.460Z,5.53
2022-08-03T01:58:37.086Z,5.72
2022-08-03T02:01:08.081Z,5.95
2022-08-03T02:03:59.769Z,5.18
2022-08-03T02:06:58.887Z,5.80
2022-08-03T02:09:22.609Z,5.65
2022-08-03T02:11:53.047Z,5.30
2022-08-03T02:14:23.139Z,5.50
2022-08-03T02:16:53.895Z,6.35
2022-08-03T02:19:23.498Z,5.97
2022-08-03T02:21:55.709Z,5.97
2022-08-03T02:24:26.188Z,5.57
2022-08-03T02:26:56.948Z,5.78
2022-08-03T02:29:40.151Z,5.75
2022-08-03T02:32:17.917Z,5.97
2022-08-03T02:34:49.916Z,6.43
2022-08-03T02:37:20.743Z,5.57
2022-08-03T02:39:52.082Z,5.47
2022-08-03T02:42:24.339Z,6.38
2022-08-03T02:44:56.452Z,5.55
2022-08-03T02:47:28.933Z,5.70
2022-08-03T02:50:19.837Z,5.75
2022-08-03T02:52:49.860Z,5.75
2022-08-03T02:55:20.846Z,5.82
2022-08-03T02:57:51.108Z,5.63
2022-08-03T03:00:27.917Z,6.85
2022-08-03T03:03:00.918Z,6.82
2022-08-03T03:05:55.485Z,7.43
2022-08-03T03:08:25.889Z,6.45
2022-08-03T03:10:56.822Z,6.70
2022-08-03T03:13:26.496Z,7.15
2022-08-03T03:15:55.933Z,6.80
2022-08-03T03:18:28.573Z,8.82
2022-08-03T03:20:59.006Z,8.68
2022-08-03T03:23:28.938Z,11.27
2022-08-03T03:25:58.936Z,9.45
2022-08-03T03:28:27.952Z,8.98
2022-08-03T03:30:56.415Z,8.40
2022-08-03T03:33:28.506Z,9.82
2022-08-03T03:35:58.740Z,8.40
2022-08-03T03:38:27.512Z,7.75
2022-08-03T03:40:57.063Z,9.20
2022-08-03T03:43:26.007Z,7.18
2022-08-03T03:45:55.719Z,9.65
2022-08-03T03:48:25.286Z,6.85
2022-08-03T03:50:57.247Z,6.85
2022-08-03T03:53:26.424Z,9.32
2022-08-03T03:55:59.221Z,9.93
2022-08-03T03:58:32.337Z,10.98
2022-08-03T04:01:01.387Z,8.13
2022-08-03T04:03:29.831Z,12.32
2022-08-03T04:06:16.966Z,10.15
2022-08-03T04:09:03.406Z,8.35
2022-08-03T04:11:39.352Z,7.75
2022-08-03T04:14:10.894Z,8.23
2022-08-03T04:16:44.172Z,6.53
2022-08-03T04:19:21.048Z,8.48
2022-08-03T04:21:57.469Z,8.02
2022-08-03T04:24:28.314Z,8.73
2022-08-03T04:26:58.513Z,8.55
2022-08-03T04:29:28.572Z,8.35
2022-08-03T04:31:59.786Z,8.80
2022-08-03T04:34:29.036Z,7.65
2022-08-03T04:37:01.118Z,6.80
2022-08-03T04:39:32.139Z,6.90
2022-08-03T04:42:08.604Z,6.80
2022-08-03T04:44:56.542Z,6.50
2022-08-03T04:47:28.979Z,6.63
2022-08-03T04:49:57.559Z,5.57
2022-08-03T04:52:27.305Z,7.28
2022-08-03T04:54:55.464Z,7.00
2022-08-03T04:57:23.879Z,6.45
2022-08-03T05:00:01.395Z,7.18
2022-08-03T05:02:32.052Z,7.43
2022-08-03T05:05:01.017Z,6.90
2022-08-03T05:07:36.382Z,6.50
2022-08-03T05:10:15.122Z,6.22
2022-08-03T05:12:46.763Z,7.65
2022-08-03T05:15:15.858Z,7.60
2022-08-03T05:17:44.113Z,6.28
2022-08-03T05:20:13.023Z,6.82
2022-08-03T05:22:42.804Z,6.60
2022-08-03T05:25:17.285Z,7.65
2022-08-03T05:27:49.260Z,7.25
2022-08-03T05:30:31.151Z,6.72
2022-08-03T05:33:02.729Z,7.20
2022-08-03T05:35:56.213Z,7.55
2022-08-03T05:38:28.841Z,6.75
2022-08-03T05:41:21.408Z,7.35
2022-08-03T05:43:52.298Z,8.23
2022-08-03T05:46:21.340Z,7.35
2022-08-03T05:48:49.519Z,7.20
2022-08-03T05:51:18.671Z,6.43
2022-08-03T05:53:48.555Z,7.10
2022-08-03T05:56:17.169Z,8.02
2022-08-03T05:58:47.238Z,6.80
2022-08-03T06:01:16.466Z,6.45
2022-08-03T06:03:44.947Z,7.53
2022-08-03T06:06:13.477Z,6.82
2022-08-03T06:08:42.270Z,7.68
2022-08-03T06:11:12.162Z,6.05
2022-08-03T06:13:41.188Z,7.55
2022-08-03T06:16:09.875Z,6.85
2022-08-03T06:18:38.554Z,7.13
2022-08-03T06:21:14.594Z,7.15
2022-08-03T06:23:54.157Z,6.90
2022-08-03T06:26:29.420Z,7.85
2022-08-03T06:28:57.708Z,7.55
2022-08-03T06:31:33.043Z,7.15
2022-08-03T06:34:34.392Z,6.00
2022-08-03T06:36:58.497Z,6.45
2022-08-03T06:39:30.483Z,5.80
2022-08-03T06:42:00.267Z,7.25
2022-08-03T06:44:28.469Z,5.47
2022-08-03T06:46:56.754Z,5.88
2022-08-03T06:49:25.523Z,5.85
2022-08-03T06:52:03.661Z,5.53
2022-08-03T06:54:36.380Z,6.03
2022-08-03T06:57:08.194Z,5.55
2022-08-03T07:00:10.656Z,5.28
2022-08-03T07:02:24.930Z,5.03
2022-08-03T07:04:57.654Z,5.57
2022-08-03T07:07:26.121Z,5.07
2022-08-03T07:09:56.793Z,5.60
2022-08-03T07:12:29.361Z,5.45
2022-08-03T07:15:01.286Z,5.35
2022-08-03T07:17:31.620Z,5.45
2022-08-03T07:20:00.469Z,5.00
2022-08-03T07:22:28.665Z,5.07
2022-08-03T07:24:57.557Z,5.78
2022-08-03T07:27:28.575Z,5.22
2022-08-03T07:29:59.248Z,5.10
2022-08-03T07:32:28.607Z,4.45
2022-08-03T07:35:00.492Z,5.72
2022-08-03T07:37:30.448Z,5.78
2022-08-03T07:39:59.333Z,5.13
2022-08-03T07:42:27.864Z,5.15
2022-08-03T07:44:58.413Z,5.07
2022-08-03T07:47:35.673Z,5.00
2022-08-03T07:50:08.713Z,5.38
2022-08-03T07:52:50.454Z,5.75
2022-08-03T07:55:20.436Z,4.97
2022-08-03T07:57:49.277Z,5.97
2022-08-03T08:00:20.724Z,5.15
2022-08-03T08:02:49.107Z,5.35
2022-08-03T08:05:18.203Z,6.13
2022-08-03T08:07:51.357Z,5.28
2022-08-03T08:10:20.659Z,5.13
2022-08-03T08:12:49.250Z,5.32
2022-08-03T08:15:19.038Z,6.03
2022-08-03T08:17:49.528Z,6.35
2022-08-03T08:20:27.042Z,6.00
2022-08-03T08:23:01.144Z,5.88
2022-08-03T08:25:30.832Z,5.47
2022-08-03T08:28:30.528Z,5.93
2022-08-03T08:30:53.785Z,5.38
2022-08-03T08:33:48.355Z,5.57
2022-08-03T08:36:20.632Z,5.22
2022-08-03T08:38:49.078Z,6.20
2022-08-03T08:41:17.698Z,5.18
2022-08-03T08:43:45.977Z,5.63
2022-08-03T08:46:23.942Z,5.55
2022-08-03T08:48:53.899Z,6.07
2022-08-03T08:51:23.754Z,5.10
2022-08-03T08:54:13.719Z,5.60
2022-08-03T08:56:42.183Z,5.10
2022-08-03T08:59:10.589Z,5.35
2022-08-03T09:01:40.394Z,5.30
2022-08-03T09:04:09.536Z,5.05
2022-08-03T09:06:37.733Z,5.80
2022-08-03T09:09:08.269Z,5.47
2022-08-03T09:11:53.173Z,4.93
2022-08-03T09:14:34.366Z,5.07
2022-08-03T09:17:10.102Z,4.95
2022-08-03T09:20:05.061Z,4.85
2022-08-03T09:22:34.389Z,5.50
2022-08-03T09:25:24.898Z,5.53
2022-08-03T09:27:53.472Z,5.55
2022-08-03T09:30:34.406Z,4.40
2022-08-03T09:33:06.582Z,4.50
2022-08-03T09:35:57.778Z,4.78
2022-08-03T09:38:27.617Z,4.30
2022-08-03T09:41:00.380Z,5.25
2022-08-03T09:43:29.603Z,4.82
2022-08-03T09:46:05.014Z,4.07
2022-08-03T09:48:36.858Z,4.63
2022-08-03T09:51:13.075Z,4.25
2022-08-03T09:53:59.663Z,4.75
2022-08-03T09:56:43.440Z,4.13
2022-08-03T09:59:12.623Z,4.05
2022-08-03T10:01:42.648Z,3.33
2022-08-03T10:04:16.903Z,4.10
2022-08-03T10:06:45.658Z,4.40
2022-08-03T10:09:15.750Z,4.35
2022-08-03T10:11:46.898Z,3.58
2022-08-03T10:14:19.842Z,5.47
2022-08-03T10:16:49.282Z,4.10
2022-08-03T10:19:20.909Z,4.65
2022-08-03T10:21:52.836Z,4.30
2022-08-03T10:24:26.169Z,5.07
2022-08-03T10:26:58.360Z,3.70
2022-08-03T10:29:29.566Z,4.53
2022-08-03T10:32:00.143Z,3.72
2022-08-03T10:34:42.607Z,4.55
2022-08-03T10:37:14.357Z,3.85
2022-08-03T10:39:53.527Z,4.00
2022-08-03T10:42:24.814Z,3.53
2022-08-03T10:45:05.056Z,3.97
2022-08-03T10:47:34.065Z,3.30
2022-08-03T10:50:05.230Z,3.60
2022-08-03T10:52:36.066Z,3.80
2022-08-03T10:56:03.125Z,4.35
2022-08-03T10:58:57.625Z,4.10
2022-08-03T11:01:59.144Z,4.57
2022-08-03T11:04:30.212Z,3.75
2022-08-03T11:07:23.542Z,3.75
2022-08-03T11:09:53.336Z,5.00
2022-08-03T11:12:30.822Z,4.38
2022-08-03T11:15:02.930Z,4.55
2022-08-03T11:17:31.565Z,3.60
2022-08-03T11:19:59.833Z,3.38
2022-08-03T11:22:49.876Z,3.22
2022-08-03T11:25:53.645Z,4.32
2022-08-03T11:28:28.458Z,3.13
2022-08-03T11:30:56.984Z,3.53
2022-08-03T11:33:32.106Z,4.07
2022-08-03T11:36:02.515Z,3.85
2022-08-03T11:38:32.317Z,4.10
2022-08-03T11:41:02.627Z,2.78
2022-08-03T11:43:47.541Z,3.35
2022-08-03T11:46:29.596Z,3.42
2022-08-03T11:49:10.396Z,3.30
2022-08-03T11:51:40.313Z,3.40
2022-08-03T11:54:11.382Z,3.90
2022-08-03T11:56:46.860Z,4.38
2022-08-03T11:59:20.622Z,3.70
2022-08-03T12:01:50.017Z,3.35
2022-08-03T12:04:18.370Z,3.58
2022-08-03T12:07:00.480Z,3.03
2022-08-03T12:09:36.114Z,3.28
2022-08-03T12:12:05.531Z,3.25
2022-08-03T12:14:49.417Z,3.97
2022-08-03T12:17:21.692Z,3.88
2022-08-03T12:19:50.318Z,3.78
2022-08-03T12:22:33.195Z,2.95
2022-08-03T12:25:03.193Z,3.25
2022-08-03T12:27:31.744Z,3.00
2022-08-03T12:30:01.612Z,3.15
2022-08-03T12:32:31.048Z,3.38
2022-08-03T12:35:01.587Z,3.05
2022-08-03T12:37:30.684Z,3.42
2022-08-03T12:40:07.987Z,3.28
2022-08-03T12:42:42.982Z,3.88
2022-08-03T12:45:21.615Z,3.45
2022-08-03T12:47:52.306Z,3.67
2022-08-03T12:50:28.875Z,3.75
2022-08-03T12:52:57.602Z,3.70
2022-08-03T12:55:57.635Z,3.67
2022-08-03T12:58:34.557Z,3.78
2022-08-03T13:01:04.723Z,3.33
2022-08-03T13:03:43.175Z,3.08
2022-08-03T13:06:15.920Z,2.80
2022-08-03T13:08:46.019Z,3.28
2022-08-03T13:11:55.396Z,3.40
2022-08-03T13:14:19.730Z,3.47
2022-08-03T13:16:49.390Z,3.17
2022-08-03T13:19:18.074Z,2.53
2022-08-03T13:21:53.690Z,2.75
2022-08-03T13:24:34.459Z,2.92
2022-08-03T13:28:01.464Z,2.95
2022-08-03T13:29:55.378Z,2.53
2022-08-03T13:32:24.289Z,2.75
2022-08-03T13:34:52.410Z,2.60
2022-08-03T13:37:21.332Z,2.10
2022-08-03T13:39:59.589Z,3.00
2022-08-03T13:42:30.879Z,2.90
2022-08-03T13:45:01.736Z,3.05
2022-08-03T13:47:30.120Z,3.13
2022-08-03T13:50:00.802Z,3.08
2022-08-03T13:52:32.612Z,2.60
2022-08-03T13:55:00.994Z,3.35
2022-08-03T13:58:03.232Z,2.95
2022-08-03T14:00:27.058Z,3.40
2022-08-03T14:03:09.559Z,3.10
2022-08-03T14:05:41.660Z,3.53
2022-08-03T14:08:10.091Z,3.47
2022-08-03T14:10:40.077Z,3.20
2022-08-03T14:13:08.976Z,3.45
2022-08-03T14:15:38.913Z,3.42
2022-08-03T14:18:15.799Z,3.25
2022-08-03T14:20:58.727Z,2.88
2022-08-03T14:23:28.916Z,3.72
2022-08-03T14:25:58.437Z,3.38
2022-08-03T14:28:26.780Z,3.20
2022-08-03T14:30:57.158Z,3.53
2022-08-03T14:33:25.877Z,2.80
2022-08-03T14:35:54.272Z,3.50
2022-08-03T14:38:23.654Z,3.13
2022-08-03T14:40:53.165Z,2.75
2022-08-03T14:43:21.569Z,3.03
2022-08-03T14:45:52.201Z,2.97
2022-08-03T14:48:23.436Z,2.92
2022-08-03T14:51:11.672Z,3.28
2022-08-03T14:53:40.791Z,3.70
2022-08-03T14:56:10.633Z,3.03
2022-08-03T14:58:39.434Z,5.15
2022-08-03T15:02:05.604Z,3.55
2022-08-03T15:03:58.028Z,2.88
2022-08-03T15:06:26.526Z,3.38
2022-08-03T15:09:21.087Z,2.83
2022-08-03T15:11:44.057Z,2.65
2022-08-03T15:14:13.483Z,3.40
2022-08-03T15:16:43.454Z,3.05
2022-08-03T15:20:02.796Z,3.10
2022-08-03T15:22:01.787Z,3.33
2022-08-03T15:24:30.323Z,3.67
2022-08-03T15:26:58.902Z,3.10
2022-08-03T15:30:06.832Z,3.08
2022-08-03T15:32:15.937Z,2.90
2022-08-03T15:34:50.689Z,3.15
2022-08-03T15:37:20.700Z,2.95
2022-08-03T15:39:59.073Z,3.03
2022-08-03T15:42:29.541Z,3.28
2022-08-03T15:44:58.170Z,4.03
2022-08-03T15:47:26.513Z,3.72
2022-08-03T15:49:56.863Z,3.25
2022-08-03T15:52:25.228Z,3.45
2022-08-03T15:54:53.481Z,3.33
2022-08-03T15:57:22.644Z,3.47
2022-08-03T15:59:51.842Z,3.97
2022-08-03T16:02:20.265Z,3.42
2022-08-03T16:04:48.785Z,3.20
2022-08-03T16:07:38.391Z,3.35
2022-08-03T16:10:07.640Z,2.90
2022-08-03T16:12:36.006Z,3.40
2022-08-03T16:15:04.830Z,4.65
2022-08-03T16:17:33.481Z,4.32
2022-08-03T16:20:03.353Z,5.00
2022-08-03T16:22:43.047Z,4.60
2022-08-03T16:25:16.011Z,4.70
2022-08-03T16:28:00.303Z,5.10
2022-08-03T16:30:33.874Z,4.13
2022-08-03T16:33:02.657Z,3.80
2022-08-03T16:35:31.385Z,4.05
2022-08-03T16:38:04.353Z,4.30
2022-08-03T16:40:36.032Z,5.65
2022-08-03T16:43:18.284Z,4.40
2022-08-03T16:45:48.030Z,4.07
2022-08-03T16:48:16.742Z,5.93
2022-08-03T16:50:45.375Z,5.22
2022-08-03T16:53:17.064Z,4.00
2022-08-03T16:55:53.261Z,4.40
2022-08-03T16:58:34.953Z,3.55
2022-08-03T17:01:22.283Z,4.20
2022-08-03T17:04:01.272Z,4.28
2022-08-03T17:06:35.810Z,3.80
2022-08-03T17:09:08.739Z,3.75
2022-08-03T17:11:47.512Z,3.88
2022-08-03T17:14:21.873Z,3.40
2022-08-03T17:16:53.901Z,3.83
2022-08-03T17:19:24.879Z,3.85
2022-08-03T17:22:00.231Z,3.63
2022-08-03T17:24:34.312Z,4.03
2022-08-03T17:27:08.996Z,4.45
2022-08-03T17:29:49.416Z,5.13
2022-08-03T17:32:21.381Z,4.03
2022-08-03T17:34:50.401Z,4.35
2022-08-03T17:37:50.598Z,4.40
2022-08-03T17:40:17.947Z,3.75
2022-08-03T17:42:50.706Z,3.75
2022-08-03T17:45:20.797Z,4.40
2022-08-03T17:47:57.437Z,6.70
2022-08-03T17:50:35.534Z,4.90
2022-08-03T17:53:15.355Z,4.28
2022-08-03T17:56:38.548Z,4.72
2022-08-03T17:59:08.448Z,5.07
2022-08-03T18:02:13.215Z,8.68
2022-08-03T18:05:00.578Z,14.07
2022-08-03T18:07:40.998Z,16.00
2022-08-03T18:10:11.297Z,12.00
2022-08-03T18:12:52.243Z,8.85
2022-08-03T18:15:26.321Z,9.30
2022-08-03T18:18:02.253Z,11.38
2022-08-03T18:20:41.033Z,12.43
2022-08-03T18:23:24.801Z,13.65
2022-08-03T18:26:06.750Z,11.07
2022-08-03T18:28:38.389Z,11.52
2022-08-03T18:31:07.676Z,13.77
2022-08-03T18:34:18.285Z,17.40
2022-08-03T18:36:30.327Z,15.10
2022-08-03T18:41:49.143Z,11.98
2022-08-03T18:47:50.559Z,11.30
2022-08-03T18:50:30.598Z,8.85
2022-08-03T18:53:16.289Z,9.23
2022-08-03T18:56:01.362Z,6.88
2022-08-03T18:58:38.808Z,7.38
2022-08-03T19:01:57.681Z,10.02
2022-08-03T19:04:10.620Z,7.80
2022-08-03T19:06:43.494Z,6.75
2022-08-03T19:09:23.874Z,6.68
2022-08-03T19:12:14.534Z,8.25
2022-08-03T19:14:57.357Z,13.85
2022-08-03T19:17:29.680Z,8.65
2022-08-03T19:19:59.476Z,8.18
2022-08-03T19:22:30.651Z,6.32
2022-08-03T19:25:02.020Z,4.70
2022-08-03T19:27:32.182Z,5.40
2022-08-03T19:32:53.062Z,5.72
2022-08-03T19:35:51.283Z,4.93
2022-08-03T19:38:10.978Z,5.93
2022-08-03T19:40:45.297Z,6.43
2022-08-03T19:43:23.212Z,6.43
2022-08-03T19:46:06.255Z,5.40
2022-08-03T19:48:39.253Z,6.47
2022-08-03T19:51:12.381Z,8.73
2022-08-03T19:53:44.953Z,12.38
2022-08-03T19:56:16.131Z,10.82
2022-08-03T19:58:45.306Z,8.25
2022-08-03T20:01:21.949Z,6.85
2022-08-03T20:03:53.137Z,5.05
2022-08-03T20:06:23.742Z,6.85
2022-08-03T20:08:52.742Z,6.70
2022-08-03T20:11:28.470Z,5.85
2022-08-03T20:13:59.160Z,5.97
2022-08-03T20:16:27.628Z,7.47
2022-08-03T20:18:57.212Z,8.07
2022-08-03T20:21:32.037Z,7.68
2022-08-03T20:24:24.449Z,7.43
2022-08-03T20:26:55.224Z,12.40
2022-08-03T20:30:05.313Z,11.60
2022-08-03T20:32:24.655Z,14.35
2022-08-03T20:34:54.476Z,22.73
2022-08-03T20:37:24.169Z,13.85
2022-08-03T20:39:54.304Z,15.85
2022-08-03T20:42:23.007Z,12.57
2022-08-03T20:45:04.664Z,13.88
2022-08-03T20:47:36.040Z,15.93
2022-08-03T20:50:07.573Z,16.70
2022-08-03T20:52:43.967Z,23.23
2022-08-03T20:55:20.113Z,14.50
2022-08-03T20:57:49.107Z,18.40
2022-08-03T21:00:21.975Z,13.13
2022-08-03T21:02:50.413Z,10.75
2022-08-03T21:05:21.214Z,13.35
2022-08-03T21:08:10.964Z,11.90
2022-08-03T21:10:42.150Z,17.25
2022-08-03T21:13:02.300Z,5.30
2022-08-03T21:13:05.681Z,12.25
2022-08-03T21:13:05.868Z,11.75
2022-08-03T21:13:18.441Z,17.02
2022-08-03T21:16:03.304Z,14.55
2022-08-03T21:18:45.787Z,21.13
2022-08-03T21:21:17.550Z,24.70
2022-08-03T21:23:49.825Z,24.67
2022-08-03T21:26:19.414Z,38.63
2022-08-03T21:28:49.270Z,24.88
2022-08-03T21:31:24.671Z,15.10
2022-08-03T21:33:56.579Z,12.82
2022-08-03T21:36:27.616Z,13.50
2022-08-03T21:38:57.481Z,14.98
2022-08-03T21:41:27.947Z,12.45
2022-08-03T21:43:56.627Z,10.25
2022-08-03T21:46:26.836Z,10.45
2022-08-03T21:50:04.835Z,21.30
2022-08-03T21:51:51.041Z,12.02
2022-08-03T21:54:21.009Z,12.15
2022-08-03T21:56:51.982Z,25.23
2022-08-03T21:59:22.445Z,19.30
2022-08-03T22:01:55.350Z,18.85
2022-08-03T22:04:50.723Z,19.02
2022-08-03T22:07:19.200Z,12.43
2022-08-03T22:09:50.913Z,9.45
2022-08-03T22:12:24.837Z,21.50
2022-08-03T22:15:00.801Z,17.98
2022-08-03T22:17:54.983Z,29.20
2022-08-03T22:20:21.617Z,25.17
2022-08-03T22:22:56.664Z,19.05
2022-08-03T22:25:28.811Z,22.38
2022-08-03T22:27:59.076Z,22.48
2022-08-03T22:30:27.656Z,21.15
2022-08-03T22:32:57.542Z,21.15
2022-08-03T22:35:28.388Z,34.20
2022-08-03T22:38:00.095Z,16.35
2022-08-03T22:40:29.088Z,26.92
2022-08-03T22:42:57.761Z,19.30
2022-08-03T22:46:07.189Z,13.13
2022-08-03T22:48:17.797Z,21.10
2022-08-03T22:50:47.244Z,14.18
2022-08-03T22:53:22.185Z,15.23
2022-08-03T22:55:51.295Z,20.73
2022-08-03T22:58:20.812Z,14.32
2022-08-03T23:00:55.237Z,9.88
2022-08-03T23:03:58.491Z,12.93
2022-08-03T23:06:19.399Z,9.05
2022-08-03T23:08:51.318Z,10.23
2022-08-03T23:11:22.270Z,9.07
2022-08-03T23:13:54.505Z,8.80
2022-08-03T23:16:28.592Z,10.48
2022-08-03T23:18:59.265Z,13.10
2022-08-03T23:21:53.814Z,12.35
2022-08-03T23:24:29.807Z,10.82
2022-08-03T23:26:59.033Z,11.40
2022-08-03T23:29:29.821Z,10.57
2022-08-03T23:31:59.365Z,9.20
2022-08-03T23:34:47.199Z,10.18
2022-08-03T23:37:16.173Z,10.43
2022-08-03T23:39:48.959Z,11.27
2022-08-03T23:42:19.877Z,10.00
2022-08-03T23:44:48.206Z,9.15
2022-08-03T23:47:16.517Z,10.50
2022-08-03T23:49:45.562Z,9.98
2022-08-03T23:52:20.135Z,10.82
2022-08-03T23:55:01.463Z,9.65
2022-08-03T23:57:37.938Z,9.30
